Carrollton, Illinois
Current Conditions -  °F | °C
As of 8:37 PM on Sunday 23 Nov 2014 (Local Time) from KSET Reporting Station
Moderate Fog Moderate Fog  
Wind Chill: 51°   Ceiling: 300
Heat Index: 51°   Visibility: 0.5mi
Dew Point: 50°   Wind: 0mph
Humidity: 96%   Direction: NA
Pressure: 29.25"   Gusts: NA
Location:  39.3°N, 90.41°W
Report Text: KSET 240237Z AUTO 00000KT 1/2SM FG VV003 11/10 A2925 RMK AO2 P0001 T01060100
Loading
Personal Weather Stations






























Interactive Weather Map New forecast layout! Learn more

10-Day Weather Forecast

Advertisements
Track Severe Weather on mobile